sensor_id;sensor_type;location;lat;lon;timestamp;pressure;altitude;pressure_sealevel;temperature;humidity
45467;BME280;31212;49.734;8.490;2022-10-15T00:00:15;99812.97;;;14.51;100.00
45467;BME280;31212;49.734;8.490;2022-10-15T00:02:42;99819.06;;;14.51;100.00
45467;BME280;31212;49.734;8.490;2022-10-15T00:05:09;99816.47;;;14.51;100.00
45467;BME280;31212;49.734;8.490;2022-10-15T00:07:35;99814.69;;;14.52;100.00
45467;BME280;31212;49.734;8.490;2022-10-15T00:10:04;99809.44;;;14.53;100.00
45467;BME280;31212;49.734;8.490;2022-10-15T00:12:31;99805.84;;;14.57;100.00
45467;BME280;31212;49.734;8.490;2022-10-15T00:14:58;99807.63;;;14.57;100.00
45467;BME280;31212;49.734;8.490;2022-10-15T00:17:24;99814.41;;;14.66;100.00
45467;BME280;31212;49.734;8.490;2022-10-15T00:19:51;99814.72;;;14.50;100.00
45467;BME280;31212;49.734;8.490;2022-10-15T00:22:17;99816.47;;;14.51;100.00
45467;BME280;31212;49.734;8.490;2022-10-15T00:24:44;99815.56;;;14.51;100.00
45467;BME280;31212;49.734;8.490;2022-10-15T00:27:12;99818.94;;;14.56;100.00
45467;BME280;31212;49.734;8.490;2022-10-15T00:29:38;99817.13;;;14.59;100.00
45467;BME280;31212;49.734;8.490;2022-10-15T00:32:05;99817.94;;;14.65;100.00
45467;BME280;31212;49.734;8.490;2022-10-15T00:34:31;99817.94;;;14.61;100.00
45467;BME280;31212;49.734;8.490;2022-10-15T00:36:58;99818.03;;;14.58;100.00
45467;BME280;31212;49.734;8.490;2022-10-15T00:39:25;99818.09;;;14.55;100.00
45467;BME280;31212;49.734;8.490;2022-10-15T00:41:52;99818.81;;;14.63;100.00
45467;BME280;31212;49.734;8.490;2022-10-15T00:44:50;99815.44;;;14.57;100.00
45467;BME280;31212;49.734;8.490;2022-10-15T00:47:21;99817.13;;;14.59;100.00
45467;BME280;31212;49.734;8.490;2022-10-15T00:49:55;99812.84;;;14.57;100.00
45467;BME280;31212;49.734;8.490;2022-10-15T00:52:26;99811.06;;;14.57;100.00
45467;BME280;31212;49.734;8.490;2022-10-15T00:55:02;99806.56;;;14.66;100.00
45467;BME280;31212;49.734;8.490;2022-10-15T00:57:30;99804.03;;;14.61;100.00
45467;BME280;31212;49.734;8.490;2022-10-15T01:00:01;99797.94;;;14.62;100.00
45467;BME280;31212;49.734;8.490;2022-10-15T01:02:28;99797.94;;;14.62;100.00
45467;BME280;31212;49.734;8.490;2022-10-15T01:04:54;99796.13;;;14.66;100.00
45467;BME280;31212;49.734;8.490;2022-10-15T01:07:21;99796.94;;;14.68;100.00
45467;BME280;31212;49.734;8.490;2022-10-15T01:09:48;99801.16;;;14.73;100.00
45467;BME280;31212;49.734;8.490;2022-10-15T01:12:24;99793.38;;;14.72;100.00
45467;BME280;31212;49.734;8.490;2022-10-15T01:15:03;99786.53;;;14.66;100.00
45467;BME280;31212;49.734;8.490;2022-10-15T01:17:37;99789.88;;;14.73;100.00
45467;BME280;31212;49.734;8.490;2022-10-15T01:20:42;99790.94;;;14.64;100.00
45467;BME280;31212;49.734;8.490;2022-10-15T01:26:57;99796.06;;;14.69;100.00
45467;BME280;31212;49.734;8.490;2022-10-15T01:29:45;99787.38;;;14.67;100.00
45467;BME280;31212;49.734;8.490;2022-10-15T01:32:19;99794.25;;;14.71;100.00
45467;BME280;31212;49.734;8.490;2022-10-15T01:34:52;99796.88;;;14.71;100.00
45467;BME280;31212;49.734;8.490;2022-10-15T01:37:26;99796.81;;;14.74;100.00
45467;BME280;31212;49.734;8.490;2022-10-15T01:40:00;99790.53;;;14.81;100.00
45467;BME280;31212;49.734;8.490;2022-10-15T01:42:36;99796.69;;;14.78;100.00
45467;BME280;31212;49.734;8.490;2022-10-15T01:45:08;99787.03;;;14.82;100.00
45467;BME280;31212;49.734;8.490;2022-10-15T01:47:52;99788.97;;;14.74;100.00
45467;BME280;31212;49.734;8.490;2022-10-15T01:50:23;99794.63;;;14.93;100.00
45467;BME280;31212;49.734;8.490;2022-10-15T01:52:51;99790.50;;;14.83;100.00
45467;BME280;31212;49.734;8.490;2022-10-15T01:55:21;99785.13;;;14.87;100.00
45467;BME280;31212;49.734;8.490;2022-10-15T01:57:51;99778.19;;;14.88;100.00
45467;BME280;31212;49.734;8.490;2022-10-15T02:00:19;99780.75;;;14.89;100.00
45467;BME280;31212;49.734;8.490;2022-10-15T02:02:46;99779.47;;;15.06;100.00
45467;BME280;31212;49.734;8.490;2022-10-15T02:05:15;99777.69;;;15.08;100.00
45467;BME280;31212;49.734;8.490;2022-10-15T02:07:47;99774.38;;;15.01;100.00
45467;BME280;31212;49.734;8.490;2022-10-15T02:10:24;99778.56;;;15.07;100.00
45467;BME280;31212;49.734;8.490;2022-10-15T02:13:01;99773.44;;;15.04;100.00
45467;BME280;31212;49.734;8.490;2022-10-15T02:15:36;99765.53;;;15.05;100.00
45467;BME280;31212;49.734;8.490;2022-10-15T02:18:15;99774.69;;;14.87;100.00
45467;BME280;31212;49.734;8.490;2022-10-15T02:20:48;99778.94;;;14.93;100.00
45467;BME280;31212;49.734;8.490;2022-10-15T02:23:18;99783.72;;;15.10;100.00
45467;BME280;31212;49.734;8.490;2022-10-15T02:25:47;99781.41;;;14.97;100.00
45467;BME280;31212;49.734;8.490;2022-10-15T02:28:17;99784.69;;;15.06;100.00
45467;BME280;31212;49.734;8.490;2022-10-15T02:30:46;99770.13;;;14.97;100.00
45467;BME280;31212;49.734;8.490;2022-10-15T02:33:15;99774.41;;;15.00;100.00
45467;BME280;31212;49.734;8.490;2022-10-15T02:35:46;99775.22;;;15.02;100.00
45467;BME280;31212;49.734;8.490;2022-10-15T02:38:17;99781.41;;;14.97;100.00
45467;BME280;31212;49.734;8.490;2022-10-15T02:40:45;99783.19;;;14.97;100.00
45467;BME280;31212;49.734;8.490;2022-10-15T02:43:17;99783.94;;;15.02;100.00
45467;BME280;31212;49.734;8.490;2022-10-15T02:45:44;99784.81;;;15.01;100.00
45467;BME280;31212;49.734;8.490;2022-10-15T02:48:11;99780.53;;;14.99;100.00
45467;BME280;31212;49.734;8.490;2022-10-15T02:50:38;99788.28;;;15.02;100.00
45467;BME280;31212;49.734;8.490;2022-10-15T02:53:06;99784.88;;;14.98;100.00
45467;BME280;31212;49.734;8.490;2022-10-15T02:55:34;99788.50;;;14.92;100.00
45467;BME280;31212;49.734;8.490;2022-10-15T02:58:01;99795.47;;;14.93;100.00
45467;BME280;31212;49.734;8.490;2022-10-15T03:00:27;99797.28;;;14.90;100.00
45467;BME280;31212;49.734;8.490;2022-10-15T03:02:54;99800.88;;;14.86;100.00
45467;BME280;31212;49.734;8.490;2022-10-15T03:05:21;99800.88;;;14.86;100.00
45467;BME280;31212;49.734;8.490;2022-10-15T03:07:48;99800.16;;;14.79;100.00
45467;BME280;31212;49.734;8.490;2022-10-15T03:10:16;99797.44;;;14.84;100.00
45467;BME280;31212;49.734;8.490;2022-10-15T03:12:43;99792.31;;;14.80;100.00
45467;BME280;31212;49.734;8.490;2022-10-15T03:15:11;99789.69;;;14.80;100.00
45467;BME280;31212;49.734;8.490;2022-10-15T03:17:38;99786.13;;;14.83;100.00
45467;BME280;31212;49.734;8.490;2022-10-15T03:20:05;99784.63;;;14.73;100.00
45467;BME280;31212;49.734;8.490;2022-10-15T03:22:35;99793.22;;;14.78;100.00
45467;BME280;31212;49.734;8.490;2022-10-15T03:25:02;99800.06;;;14.84;100.00
45467;BME280;31212;49.734;8.490;2022-10-15T03:27:30;99798.22;;;14.87;100.00
45467;BME280;31212;49.734;8.490;2022-10-15T03:29:57;99800.03;;;14.85;100.00
45467;BME280;31212;49.734;8.490;2022-10-15T03:32:27;99805.09;;;14.91;100.00
45467;BME280;31212;49.734;8.490;2022-10-15T03:34:53;99809.38;;;14.95;100.00
45467;BME280;31212;49.734;8.490;2022-10-15T03:37:20;99797.22;;;14.93;100.00
45467;BME280;31212;49.734;8.490;2022-10-15T03:39:47;99803.38;;;14.90;100.00
45467;BME280;31212;49.734;8.490;2022-10-15T03:42:16;99798.06;;;14.93;100.00
45467;BME280;31212;49.734;8.490;2022-10-15T03:44:47;99797.56;;;15.13;100.00
45467;BME280;31212;49.734;8.490;2022-10-15T03:47:17;99807.38;;;15.05;100.00
45467;BME280;31212;49.734;8.490;2022-10-15T03:49:46;99818.66;;;15.06;100.00
45467;BME280;31212;49.734;8.490;2022-10-15T03:52:12;99813.56;;;15.01;100.00
45467;BME280;31212;49.734;8.490;2022-10-15T03:54:40;99811.00;;;14.98;100.00
45467;BME280;31212;49.734;8.490;2022-10-15T03:57:08;99815.31;;;15.01;100.00
45467;BME280;31212;49.734;8.490;2022-10-15T03:59:41;99819.66;;;15.02;100.00
45467;BME280;31212;49.734;8.490;2022-10-15T04:02:11;99815.31;;;15.01;100.00
45467;BME280;31212;49.734;8.490;2022-10-15T04:04:39;99809.19;;;15.02;100.00
45467;BME280;31212;49.734;8.490;2022-10-15T04:07:06;99811.72;;;15.05;100.00
45467;BME280;31212;49.734;8.490;2022-10-15T04:09:33;99807.31;;;15.07;100.00
45467;BME280;31212;49.734;8.490;2022-10-15T04:12:19;99818.63;;;15.07;100.00
45467;BME280;31212;49.734;8.490;2022-10-15T04:14:46;99818.97;;;14.93;100.00
45467;BME280;31212;49.734;8.490;2022-10-15T04:17:14;99824.06;;;15.00;100.00
45467;BME280;31212;49.734;8.490;2022-10-15T04:19:41;99824.78;;;15.06;100.00
45467;BME280;31212;49.734;8.490;2022-10-15T04:22:07;99832.72;;;15.02;100.00
45467;BME280;31212;49.734;8.490;2022-10-15T04:24:41;99835.25;;;15.05;100.00
45467;BME280;31212;49.734;8.490;2022-10-15T04:27:07;99830.94;;;15.04;100.00
45467;BME280;31212;49.734;8.490;2022-10-15T04:29:35;99841.50;;;14.99;100.00
45467;BME280;31212;49.734;8.490;2022-10-15T04:32:12;99845.88;;;14.99;100.00
45467;BME280;31212;49.734;8.490;2022-10-15T04:34:42;99844.16;;;14.97;100.00
45467;BME280;31212;49.734;8.490;2022-10-15T04:37:10;99845.69;;;15.06;100.00
45467;BME280;31212;49.734;8.490;2022-10-15T04:39:37;99853.44;;;15.09;100.00
45467;BME280;31212;49.734;8.490;2022-10-15T04:42:07;99846.53;;;15.07;100.00
45467;BME280;31212;49.734;8.490;2022-10-15T04:44:34;99850.00;;;15.07;100.00
45467;BME280;31212;49.734;8.490;2022-10-15T04:47:01;99844.06;;;15.01;100.00
45467;BME280;31212;49.734;8.490;2022-10-15T04:49:44;99846.09;;;14.89;100.00
45467;BME280;31212;49.734;8.490;2022-10-15T04:52:32;99846.94;;;14.90;100.00
45467;BME280;31212;49.734;8.490;2022-10-15T04:55:05;99851.28;;;14.91;100.00
45467;BME280;31212;49.734;8.490;2022-10-15T04:57:32;99853.63;;;15.02;100.00
45467;BME280;31212;49.734;8.490;2022-10-15T04:59:59;99858.00;;;15.01;100.00
45467;BME280;31212;49.734;8.490;2022-10-15T05:02:48;99858.94;;;14.99;100.00
45467;BME280;31212;49.734;8.490;2022-10-15T05:05:24;99858.06;;;15.00;100.00
45467;BME280;31212;49.734;8.490;2022-10-15T05:07:57;99859.06;;;14.92;100.00
45467;BME280;31212;49.734;8.490;2022-10-15T05:10:25;99860.97;;;14.86;100.00
45467;BME280;31212;49.734;8.490;2022-10-15T05:12:52;99864.63;;;14.78;100.00
45467;BME280;31212;49.734;8.490;2022-10-15T05:15:26;99866.09;;;14.90;100.00
45467;BME280;31212;49.734;8.490;2022-10-15T05:17:53;99866.06;;;14.92;100.00
45467;BME280;31212;49.734;8.490;2022-10-15T05:20:22;99861.16;;;14.78;100.00
45467;BME280;31212;49.734;8.490;2022-10-15T05:22:51;99864.75;;;14.72;100.00
45467;BME280;31212;49.734;8.490;2022-10-15T05:25:20;99870.94;;;14.68;100.00
45467;BME280;31212;49.734;8.490;2022-10-15T05:27:47;99873.53;;;14.70;100.00
45467;BME280;31212;49.734;8.490;2022-10-15T05:30:14;99878.69;;;14.73;100.00
45467;BME280;31212;49.734;8.490;2022-10-15T05:32:50;99874.47;;;14.67;100.00
45467;BME280;31212;49.734;8.490;2022-10-15T05:35:17;99883.97;;;14.70;100.00
45467;BME280;31212;49.734;8.490;2022-10-15T05:37:59;99878.78;;;14.68;100.00
45467;BME280;31212;49.734;8.490;2022-10-15T05:40:26;99887.59;;;14.62;100.00
45467;BME280;31212;49.734;8.490;2022-10-15T05:43:02;99889.56;;;14.53;100.00
45467;BME280;31212;49.734;8.490;2022-10-15T05:45:29;99895.63;;;14.53;100.00
45467;BME280;31212;49.734;8.490;2022-10-15T05:48:01;99915.00;;;14.43;100.00
45467;BME280;31212;49.734;8.490;2022-10-15T05:50:28;99911.53;;;14.42;100.00
45467;BME280;31212;49.734;8.490;2022-10-15T05:52:56;99917.53;;;14.47;100.00
45467;BME280;31212;49.734;8.490;2022-10-15T05:55:38;99934.94;;;14.47;100.00
45467;BME280;31212;49.734;8.490;2022-10-15T05:58:05;99928.59;;;14.60;100.00
45467;BME280;31212;49.734;8.490;2022-10-15T06:00:32;99927.66;;;14.65;100.00
45467;BME280;31212;49.734;8.490;2022-10-15T06:02:58;99929.34;;;14.67;100.00
45467;BME280;31212;49.734;8.490;2022-10-15T06:05:25;99937.94;;;14.71;100.00
45467;BME280;31212;49.734;8.490;2022-10-15T06:07:51;99942.34;;;14.70;100.00
45467;BME280;31212;49.734;8.490;2022-10-15T06:10:18;99941.44;;;14.70;100.00
45467;BME280;31212;49.734;8.490;2022-10-15T06:12:49;99947.53;;;14.72;100.00
45467;BME280;31212;49.734;8.490;2022-10-15T06:15:16;99948.25;;;14.78;100.00
45467;BME280;31212;49.734;8.490;2022-10-15T06:17:43;99953.44;;;14.80;100.00
45467;BME280;31212;49.734;8.490;2022-10-15T06:20:10;99946.38;;;14.85;100.00
45467;BME280;31212;49.734;8.490;2022-10-15T06:22:37;99946.25;;;14.91;100.00
45467;BME280;31212;49.734;8.490;2022-10-15T06:25:04;99944.31;;;14.98;100.00
45467;BME280;31212;49.734;8.490;2022-10-15T06:27:31;99934.09;;;14.87;100.00
45467;BME280;31212;49.734;8.490;2022-10-15T06:29:59;99936.78;;;14.84;100.00
45467;BME280;31212;49.734;8.490;2022-10-15T06:32:26;99953.31;;;14.86;100.00
45467;BME280;31212;49.734;8.490;2022-10-15T06:34:52;99954.03;;;14.93;100.00
45467;BME280;31212;49.734;8.490;2022-10-15T06:37:19;99954.72;;;15.01;100.00
45467;BME280;31212;49.734;8.490;2022-10-15T06:39:45;99954.69;;;15.03;100.00
45467;BME280;31212;49.734;8.490;2022-10-15T06:42:12;99964.91;;;15.13;100.00
45467;BME280;31212;49.734;8.490;2022-10-15T06:44:39;99964.97;;;15.10;100.00
45467;BME280;31212;49.734;8.490;2022-10-15T06:47:07;99972.63;;;15.20;100.00
45467;BME280;31212;49.734;8.490;2022-10-15T06:49:34;99966.66;;;15.13;100.00
45467;BME280;31212;49.734;8.490;2022-10-15T06:52:00;99967.50;;;15.13;100.00
45467;BME280;31212;49.734;8.490;2022-10-15T06:54:27;99967.69;;;15.06;100.00
45467;BME280;31212;49.734;8.490;2022-10-15T06:56:53;99969.09;;;15.21;100.00
45467;BME280;31212;49.734;8.490;2022-10-15T06:59:20;99963.84;;;15.21;100.00
45467;BME280;31212;49.734;8.490;2022-10-15T07:01:46;99963.09;;;15.17;100.00
45467;BME280;31212;49.734;8.490;2022-10-15T07:04:14;99968.38;;;15.14;100.00
45467;BME280;31212;49.734;8.490;2022-10-15T07:06:40;99971.66;;;15.22;100.00
45467;BME280;31212;49.734;8.490;2022-10-15T07:09:07;99970.69;;;15.26;100.00
45467;BME280;31212;49.734;8.490;2022-10-15T07:11:33;99976.84;;;15.25;100.00
45467;BME280;31212;49.734;8.490;2022-10-15T07:14:00;99977.59;;;15.30;100.00
45467;BME280;31212;49.734;8.490;2022-10-15T07:16:26;99982.00;;;15.28;100.00
45467;BME280;31212;49.734;8.490;2022-10-15T07:18:53;99983.72;;;15.29;100.00
45467;BME280;31212;49.734;8.490;2022-10-15T07:21:21;99992.31;;;15.35;100.00
45467;BME280;31212;49.734;8.490;2022-10-15T07:23:47;99987.81;;;15.40;100.00
45467;BME280;31212;49.734;8.490;2022-10-15T07:26:14;99992.09;;;15.44;100.00
45467;BME280;31212;49.734;8.490;2022-10-15T07:28:40;99994.44;;;15.56;100.00
45467;BME280;31212;49.734;8.490;2022-10-15T07:31:07;99995.00;;;15.68;100.00
45467;BME280;31212;49.734;8.490;2022-10-15T07:33:34;100002.78;;;15.71;100.00
45467;BME280;31212;49.734;8.490;2022-10-15T07:36:02;99994.84;;;15.75;100.00
45467;BME280;31212;49.734;8.490;2022-10-15T07:38:31;99991.19;;;15.83;100.00
45467;BME280;31212;49.734;8.490;2022-10-15T07:40:59;99991.22;;;15.81;100.00
45467;BME280;31212;49.734;8.490;2022-10-15T07:43:26;99996.03;;;15.98;100.00
45467;BME280;31212;49.734;8.490;2022-10-15T07:45:53;100002.75;;;16.08;100.00
45467;BME280;31212;49.734;8.490;2022-10-15T07:48:20;99996.41;;;16.17;100.00
45467;BME280;31212;49.734;8.490;2022-10-15T07:50:46;99995.25;;;16.27;100.00
45467;BME280;31212;49.734;8.490;2022-10-15T07:53:18;99998.84;;;16.23;100.00
45467;BME280;31212;49.734;8.490;2022-10-15T07:55:51;99997.97;;;16.24;99.83
45467;BME280;31212;49.734;8.490;2022-10-15T07:58:18;99999.50;;;16.33;99.08
45467;BME280;31212;49.734;8.490;2022-10-15T08:00:45;100001.31;;;16.29;98.95
45467;BME280;31212;49.734;8.490;2022-10-15T08:03:11;100007.38;;;16.31;98.74
45467;BME280;31212;49.734;8.490;2022-10-15T08:05:38;100012.97;;;16.18;98.97
45467;BME280;31212;49.734;8.490;2022-10-15T08:08:04;100019.00;;;16.21;98.92
45467;BME280;31212;49.734;8.490;2022-10-15T08:10:31;100028.31;;;16.31;99.13
45467;BME280;31212;49.734;8.490;2022-10-15T08:12:59;100027.03;;;16.46;99.09
45467;BME280;31212;49.734;8.490;2022-10-15T08:15:25;100017.41;;;16.48;98.54
45467;BME280;31212;49.734;8.490;2022-10-15T08:17:52;100026.09;;;16.51;98.71
45467;BME280;31212;49.734;8.490;2022-10-15T08:20:18;100016.19;;;16.60;98.44
45467;BME280;31212;49.734;8.490;2022-10-15T08:22:45;100014.63;;;16.55;97.92
45467;BME280;31212;49.734;8.490;2022-10-15T08:25:11;100013.94;;;16.46;97.86
45467;BME280;31212;49.734;8.490;2022-10-15T08:27:38;100015.63;;;16.49;97.33
45467;BME280;31212;49.734;8.490;2022-10-15T08:30:07;100022.47;;;16.55;97.48
45467;BME280;31212;49.734;8.490;2022-10-15T08:32:34;100017.09;;;16.59;96.93
45467;BME280;31212;49.734;8.490;2022-10-15T08:35:00;100025.66;;;16.66;96.79
45467;BME280;31212;49.734;8.490;2022-10-15T08:37:31;100020.53;;;16.61;96.22
45467;BME280;31212;49.734;8.490;2022-10-15T08:39:57;100027.28;;;16.70;95.99
45467;BME280;31212;49.734;8.490;2022-10-15T08:42:28;100022.88;;;16.71;95.36
45467;BME280;31212;49.734;8.490;2022-10-15T08:44:58;100012.69;;;16.93;94.68
45467;BME280;31212;49.734;8.490;2022-10-15T08:47:33;99998.88;;;17.16;94.40
45467;BME280;31212;49.734;8.490;2022-10-15T08:50:09;100001.50;;;17.44;93.40
45467;BME280;31212;49.734;8.490;2022-10-15T08:52:41;99988.69;;;17.62;92.00
45467;BME280;31212;49.734;8.490;2022-10-15T08:55:09;99973.06;;;17.84;89.94
45467;BME280;31212;49.734;8.490;2022-10-15T08:57:40;99967.31;;;17.99;88.95
45467;BME280;31212;49.734;8.490;2022-10-15T09:00:13;99969.63;;;18.09;88.79
45467;BME280;31212;49.734;8.490;2022-10-15T09:02:49;99965.41;;;18.05;88.19
45467;BME280;31212;49.734;8.490;2022-10-15T09:05:31;99961.44;;;17.93;87.87
45467;BME280;31212;49.734;8.490;2022-10-15T09:08:04;99961.72;;;17.83;87.99
45467;BME280;31212;49.734;8.490;2022-10-15T09:10:42;99959.66;;;17.93;87.80
45467;BME280;31212;49.734;8.490;2022-10-15T09:13:19;99949.13;;;18.19;86.91
45467;BME280;31212;49.734;8.490;2022-10-15T09:15:50;99932.41;;;18.69;85.70
45467;BME280;31212;49.734;8.490;2022-10-15T09:18:22;99920.41;;;19.52;83.93
45467;BME280;31212;49.734;8.490;2022-10-15T09:20:49;99810.78;;;20.28;79.27
45467;BME280;31212;49.734;8.490;2022-10-15T09:23:18;99752.06;;;20.98;76.19
45467;BME280;31212;49.734;8.490;2022-10-15T09:25:50;99718.41;;;21.54;74.39
45467;BME280;31212;49.734;8.490;2022-10-15T09:28:22;99724.53;;;21.37;73.91
45467;BME280;31212;49.734;8.490;2022-10-15T09:30:54;99726.22;;;20.87;74.16
45467;BME280;31212;49.734;8.490;2022-10-15T09:33:32;99785.00;;;20.16;76.09
45467;BME280;31212;49.734;8.490;2022-10-15T09:36:10;99843.50;;;19.64;78.21
45467;BME280;31212;49.734;8.490;2022-10-15T09:38:47;99875.28;;;19.18;79.65
45467;BME280;31212;49.734;8.490;2022-10-15T09:41:24;99899.22;;;18.90;81.12
45467;BME280;31212;49.734;8.490;2022-10-15T09:43:56;99933.88;;;18.76;82.63
45467;BME280;31212;49.734;8.490;2022-10-15T09:46:29;99950.41;;;18.32;84.00
45467;BME280;31212;49.734;8.490;2022-10-15T09:49:03;99981.69;;;18.14;85.74
45467;BME280;31212;49.734;8.490;2022-10-15T09:51:35;99993.22;;;18.10;86.71
45467;BME280;31212;49.734;8.490;2022-10-15T09:54:10;100000.66;;;17.97;87.14
45467;BME280;31212;49.734;8.490;2022-10-15T09:56:44;99994.06;;;17.84;87.46
45467;BME280;31212;49.734;8.490;2022-10-15T09:59:15;100002.88;;;17.56;88.48
45467;BME280;31212;49.734;8.490;2022-10-15T10:01:55;100022.53;;;17.43;89.96
45467;BME280;31212;49.734;8.490;2022-10-15T10:04:26;100032.41;;;17.35;90.62
45467;BME280;31212;49.734;8.490;2022-10-15T10:06:55;100028.13;;;17.32;91.19
45467;BME280;31212;49.734;8.490;2022-10-15T10:09:24;100033.41;;;17.30;91.66
45467;BME280;31212;49.734;8.490;2022-10-15T10:11:58;100036.22;;;17.24;92.10
45467;BME280;31212;49.734;8.490;2022-10-15T10:14:28;100038.22;;;17.16;92.68
45467;BME280;31212;49.734;8.490;2022-10-15T10:17:05;100045.34;;;17.11;92.96
45467;BME280;31212;49.734;8.490;2022-10-15T10:19:33;100032.34;;;17.08;93.20
45467;BME280;31212;49.734;8.490;2022-10-15T10:22:12;100040.22;;;17.08;93.43
45467;BME280;31212;49.734;8.490;2022-10-15T10:24:39;100043.34;;;17.19;93.37
45467;BME280;31212;49.734;8.490;2022-10-15T10:27:17;100049.22;;;17.27;93.32
45467;BME280;31212;49.734;8.490;2022-10-15T10:29:47;100041.34;;;17.27;92.96
45467;BME280;31212;49.734;8.490;2022-10-15T10:32:18;100042.69;;;17.41;92.45
45467;BME280;31212;49.734;8.490;2022-10-15T10:34:47;100035.78;;;17.38;92.00
45467;BME280;31212;49.734;8.490;2022-10-15T10:37:14;100033.94;;;17.42;91.83
45467;BME280;31212;49.734;8.490;2022-10-15T10:39:41;100035.16;;;17.58;91.31
45467;BME280;31212;49.734;8.490;2022-10-15T10:42:23;100032.97;;;17.44;91.23
45467;BME280;31212;49.734;8.490;2022-10-15T10:44:51;100034.88;;;17.39;91.53
45467;BME280;31212;49.734;8.490;2022-10-15T10:47:19;100023.19;;;17.49;91.65
45467;BME280;31212;49.734;8.490;2022-10-15T10:49:52;100019.75;;;17.47;91.55
45467;BME280;31212;49.734;8.490;2022-10-15T10:52:24;100025.22;;;17.41;91.68
45467;BME280;31212;49.734;8.490;2022-10-15T10:54:56;100029.75;;;17.36;91.99
45467;BME280;31212;49.734;8.490;2022-10-15T10:57:39;100025.63;;;17.27;92.66
45467;BME280;31212;49.734;8.490;2022-10-15T11:00:13;100042.47;;;17.20;93.30
45467;BME280;31212;49.734;8.490;2022-10-15T11:02:44;100038.72;;;17.57;93.44
45467;BME280;31212;49.734;8.490;2022-10-15T11:05:13;100038.03;;;17.77;92.85
45467;BME280;31212;49.734;8.490;2022-10-15T11:07:46;100021.16;;;17.86;92.39
45467;BME280;31212;49.734;8.490;2022-10-15T11:10:18;100013.00;;;17.95;91.76
45467;BME280;31212;49.734;8.490;2022-10-15T11:13:03;100004.69;;;17.81;91.76
45467;BME280;31212;49.734;8.490;2022-10-15T11:15:44;100008.31;;;17.77;92.14
45467;BME280;31212;49.734;8.490;2022-10-15T11:18:32;100007.53;;;17.73;92.42
45467;BME280;31212;49.734;8.490;2022-10-15T11:21:12;100024.38;;;17.68;92.89
45467;BME280;31212;49.734;8.490;2022-10-15T11:24:09;100001.50;;;17.71;92.43
45467;BME280;31212;49.734;8.490;2022-10-15T11:26:55;100005.88;;;17.71;92.18
45467;BME280;31212;49.734;8.490;2022-10-15T11:29:49;100005.63;;;17.78;91.72
45467;BME280;31212;49.734;8.490;2022-10-15T11:32:28;100004.13;;;17.71;92.38
45467;BME280;31212;49.734;8.490;2022-10-15T11:35:18;100011.84;;;17.76;92.79
45467;BME280;31212;49.734;8.490;2022-10-15T11:37:57;100016.22;;;18.04;93.16
45467;BME280;31212;49.734;8.490;2022-10-15T11:40:31;99998.56;;;18.32;91.96
45467;BME280;31212;49.734;8.490;2022-10-15T11:43:09;99980.84;;;18.63;90.46
45467;BME280;31212;49.734;8.490;2022-10-15T11:45:59;99971.09;;;18.65;89.22
45467;BME280;31212;49.734;8.490;2022-10-15T11:48:39;99963.75;;;18.75;88.51
45467;BME280;31212;49.734;8.490;2022-10-15T11:51:14;99951.25;;;19.04;87.88
45467;BME280;31212;49.734;8.490;2022-10-15T11:53:54;99941.66;;;19.03;87.66
45467;BME280;31212;49.734;8.490;2022-10-15T11:56:27;99934.78;;;18.98;87.09
45467;BME280;31212;49.734;8.490;2022-10-15T11:58:59;99921.22;;;19.09;86.18
45467;BME280;31212;49.734;8.490;2022-10-15T12:01:31;99914.16;;;19.32;85.70
45467;BME280;31212;49.734;8.490;2022-10-15T12:04:08;99886.34;;;19.47;84.45
45467;BME280;31212;49.734;8.490;2022-10-15T12:06:41;99864.63;;;19.42;83.58
45467;BME280;31212;49.734;8.490;2022-10-15T12:09:15;99847.47;;;19.33;82.56
45467;BME280;31212;49.734;8.490;2022-10-15T12:11:49;99846.72;;;19.29;82.58
45467;BME280;31212;49.734;8.490;2022-10-15T12:14:23;99859.47;;;19.18;82.64
45467;BME280;31212;49.734;8.490;2022-10-15T12:16:58;99848.88;;;18.99;82.71
45467;BME280;31212;49.734;8.490;2022-10-15T12:19:33;99864.13;;;18.89;83.32
45467;BME280;31212;49.734;8.490;2022-10-15T12:22:04;99881.97;;;18.81;83.64
45467;BME280;31212;49.734;8.490;2022-10-15T12:25:00;99886.53;;;18.54;84.51
45467;BME280;31212;49.734;8.490;2022-10-15T12:27:29;99897.00;;;18.55;85.12
45467;BME280;31212;49.734;8.490;2022-10-15T12:30:26;99913.56;;;18.33;85.91
45467;BME280;31212;49.734;8.490;2022-10-15T12:32:54;99920.81;;;18.27;86.51
45467;BME280;31212;49.734;8.490;2022-10-15T12:35:27;99917.03;;;18.34;86.52
45467;BME280;31212;49.734;8.490;2022-10-15T12:38:08;99913.19;;;18.19;86.99
45467;BME280;31212;49.734;8.490;2022-10-15T12:40:38;99919.47;;;18.15;87.20
45467;BME280;31212;49.734;8.490;2022-10-15T12:43:12;99919.03;;;18.04;87.61
45467;BME280;31212;49.734;8.490;2022-10-15T12:45:49;99925.56;;;18.17;88.04
45467;BME280;31212;49.734;8.490;2022-10-15T12:48:20;99924.53;;;18.21;87.52
45467;BME280;31212;49.734;8.490;2022-10-15T12:50:47;99910.16;;;18.31;87.75
45467;BME280;31212;49.734;8.490;2022-10-15T12:53:31;99881.69;;;18.43;86.51
45467;BME280;31212;49.734;8.490;2022-10-15T12:56:22;99853.81;;;18.61;84.92
45467;BME280;31212;49.734;8.490;2022-10-15T12:58:50;99832.38;;;18.72;83.59
45467;BME280;31212;49.734;8.490;2022-10-15T13:01:27;99805.91;;;18.98;81.83
45467;BME280;31212;49.734;8.490;2022-10-15T13:03:58;99774.41;;;18.97;80.65
45467;BME280;31212;49.734;8.490;2022-10-15T13:06:30;99769.75;;;18.81;80.63
45467;BME280;31212;49.734;8.490;2022-10-15T13:09:02;99761.72;;;18.64;80.28
45467;BME280;31212;49.734;8.490;2022-10-15T13:11:34;99766.34;;;18.35;80.79
45467;BME280;31212;49.734;8.490;2022-10-15T13:14:16;99782.72;;;18.42;81.18
45467;BME280;31212;49.734;8.490;2022-10-15T13:16:45;99784.63;;;18.38;81.24